createdAt,value
2017-09-27T00:01:00.007Z,95.65
2017-09-27T00:02:44.496Z,93.91
2017-09-27T00:03:45.134Z,94.21
2017-09-27T00:05:29.275Z,94.21
2017-09-27T00:06:29.912Z,94.68
2017-09-27T00:08:14.050Z,94.30
2017-09-27T00:09:14.691Z,94.21
2017-09-27T00:10:59.129Z,93.91
2017-09-27T00:11:59.766Z,94.01
2017-09-27T00:13:43.902Z,94.21
2017-09-27T00:14:44.549Z,94.40
2017-09-27T00:16:28.680Z,94.21
2017-09-27T00:17:29.314Z,94.30
2017-09-27T00:19:13.602Z,94.11
2017-09-27T00:20:14.239Z,94.21
2017-09-27T00:21:58.375Z,93.91
2017-09-27T00:22:59.012Z,93.91
2017-09-27T00:24:43.159Z,94.11
2017-09-27T00:25:43.796Z,93.44
2017-09-27T00:27:28.133Z,94.30
2017-09-27T00:28:28.770Z,94.30
2017-09-27T00:30:12.906Z,94.11
2017-09-27T00:31:13.544Z,93.82
2017-09-27T00:32:57.681Z,93.05
2017-09-27T00:33:58.318Z,94.30
2017-09-27T00:35:42.606Z,94.21
2017-09-27T00:36:43.243Z,94.11
2017-09-27T00:38:27.379Z,94.21
2017-09-27T00:39:28.016Z,94.21
2017-09-27T00:41:12.154Z,93.63
2017-09-27T00:42:12.791Z,92.29
2017-09-27T00:43:57.030Z,92.57
2017-09-27T00:44:57.669Z,93.53
2017-09-27T00:46:41.858Z,92.86
2017-09-27T00:47:42.499Z,93.15
2017-09-27T00:49:26.632Z,93.24
2017-09-27T00:50:27.271Z,93.24
2017-09-27T00:52:11.559Z,91.80
2017-09-27T00:53:12.196Z,92.57
2017-09-27T00:54:56.338Z,92.86
2017-09-27T00:55:56.974Z,92.67
2017-09-27T00:57:41.112Z,93.63
2017-09-27T00:58:41.749Z,92.67
2017-09-27T01:00:25.988Z,93.05
2017-09-27T01:01:26.625Z,93.10
2017-09-27T01:03:10.760Z,93.05
2017-09-27T01:04:11.399Z,93.15
2017-09-27T01:05:55.542Z,93.44
2017-09-27T01:06:56.180Z,93.15
2017-09-27T01:08:40.467Z,93.24
2017-09-27T01:09:41.106Z,94.21
2017-09-27T01:11:25.244Z,94.30
2017-09-27T01:12:25.877Z,93.05
2017-09-27T01:14:10.015Z,93.05
2017-09-27T01:15:10.652Z,93.34
2017-09-27T01:16:55.089Z,93.05
2017-09-27T01:17:55.726Z,92.86
2017-09-27T01:19:39.864Z,93.44
2017-09-27T01:20:40.501Z,93.44
2017-09-27T01:22:24.639Z,93.34
2017-09-27T01:23:25.276Z,93.53
2017-09-27T01:25:09.615Z,93.24
2017-09-27T01:26:10.251Z,93.10
2017-09-27T01:27:54.387Z,94.11
2017-09-27T01:28:55.024Z,93.19
2017-09-27T01:30:39.163Z,93.05
2017-09-27T01:31:39.798Z,93.24
2017-09-27T01:33:23.887Z,93.24
2017-09-27T01:34:24.725Z,93.58
2017-09-27T01:36:08.861Z,94.06
2017-09-27T01:37:09.498Z,94.16
2017-09-27T01:38:53.636Z,94.01
2017-09-27T01:39:54.273Z,93.58
2017-09-27T01:41:38.410Z,94.11
2017-09-27T01:42:39.248Z,94.06
2017-09-27T01:44:23.392Z,94.06
2017-09-27T01:45:24.029Z,93.29
2017-09-27T01:47:08.166Z,94.16
2017-09-27T01:48:08.803Z,94.45
2017-09-27T01:49:52.941Z,93.49
2017-09-27T01:50:53.778Z,93.87
2017-09-27T01:52:37.915Z,94.35
2017-09-27T01:53:38.551Z,93.87
2017-09-27T01:55:22.697Z,93.58
2017-09-27T01:56:23.332Z,93.39
2017-09-27T01:58:07.471Z,93.91
2017-09-27T01:59:08.257Z,93.39
2017-09-27T02:00:52.345Z,93.96
2017-09-27T02:01:52.982Z,93.29
2017-09-27T02:03:37.120Z,93.19
2017-09-27T02:04:37.756Z,92.81
2017-09-27T02:06:21.895Z,92.52
2017-09-27T02:07:22.732Z,91.95
2017-09-27T02:09:06.868Z,91.47
2017-09-27T02:10:07.504Z,91.66
2017-09-27T02:11:51.643Z,92.62
2017-09-27T02:12:52.280Z,92.91
2017-09-27T02:14:36.421Z,92.52
2017-09-27T02:15:37.268Z,92.14
2017-09-27T02:17:21.394Z,92.81
2017-09-27T02:18:22.030Z,92.52
2017-09-27T02:20:06.119Z,91.47
2017-09-27T02:21:06.757Z,91.47
2017-09-27T02:22:50.894Z,92.52
2017-09-27T02:23:51.681Z,92.24
2017-09-27T02:25:35.825Z,93.19
2017-09-27T02:26:36.461Z,92.24
2017-09-27T02:28:20.598Z,93.10
2017-09-27T02:29:21.236Z,93.58
2017-09-27T02:31:05.374Z,93.58
2017-09-27T02:32:06.210Z,92.81
2017-09-27T02:33:50.346Z,93.10
2017-09-27T02:34:50.984Z,92.24
2017-09-27T02:36:35.122Z,92.05
2017-09-27T02:37:35.758Z,91.47
2017-09-27T02:39:19.896Z,92.14
2017-09-27T02:40:20.683Z,91.18
2017-09-27T02:42:04.820Z,91.66
2017-09-27T02:43:05.455Z,91.37
2017-09-27T02:44:49.600Z,92.62
2017-09-27T02:45:50.236Z,92.14
2017-09-27T02:47:34.376Z,92.91
2017-09-27T02:48:35.264Z,94.16
2017-09-27T02:50:19.411Z,92.33
2017-09-27T02:51:20.098Z,93.19
2017-09-27T02:53:04.234Z,91.95
2017-09-27T02:54:04.873Z,91.18
2017-09-27T02:55:49.008Z,91.95
2017-09-27T02:56:49.897Z,92.24
2017-09-27T02:58:34.035Z,92.52
2017-09-27T02:59:34.672Z,93.87
2017-09-27T03:01:18.810Z,92.91
2017-09-27T03:02:19.448Z,92.33
2017-09-27T03:04:03.586Z,92.81
2017-09-27T03:05:04.372Z,92.62
2017-09-27T03:06:48.511Z,93.68
2017-09-27T03:07:49.145Z,93.39
2017-09-27T03:09:33.282Z,93.19
2017-09-27T03:10:33.919Z,93.49
2017-09-27T03:12:18.057Z,93.68
2017-09-27T03:13:18.946Z,93.87
2017-09-27T03:15:03.088Z,94.16
2017-09-27T03:16:03.724Z,93.58
2017-09-27T03:17:47.862Z,93.19
2017-09-27T03:18:48.499Z,93.49
2017-09-27T03:20:32.635Z,92.81
2017-09-27T03:21:33.572Z,93.29
2017-09-27T03:23:17.711Z,93.58
2017-09-27T03:24:18.347Z,93.01
2017-09-27T03:26:02.484Z,93.19
2017-09-27T03:27:03.121Z,93.49
2017-09-27T03:28:47.259Z,93.19
2017-09-27T03:29:47.895Z,92.91
2017-09-27T03:31:32.234Z,92.62
2017-09-27T03:32:32.870Z,92.72
2017-09-27T03:34:17.013Z,92.81
2017-09-27T03:35:17.648Z,92.05
2017-09-27T03:37:01.787Z,93.01
2017-09-27T03:38:02.422Z,92.33
2017-09-27T03:39:46.760Z,92.14
2017-09-27T03:40:47.398Z,93.19
2017-09-27T03:42:31.536Z,92.62
2017-09-27T03:43:32.225Z,93.49
2017-09-27T03:45:16.366Z,93.10
2017-09-27T03:46:17.002Z,93.19
2017-09-27T03:48:01.340Z,92.91
2017-09-27T03:49:01.977Z,93.10
2017-09-27T03:50:46.115Z,92.24
2017-09-27T03:51:46.750Z,92.52
2017-09-27T03:53:30.889Z,93.19
2017-09-27T03:54:31.525Z,93.58
2017-09-27T03:56:15.863Z,92.62
2017-09-27T03:57:16.500Z,93.49
2017-09-27T03:59:00.637Z,93.39
2017-09-27T04:00:01.274Z,93.19
2017-09-27T04:01:45.411Z,93.10
2017-09-27T04:02:46.051Z,92.14
2017-09-27T04:04:30.386Z,92.14
2017-09-27T04:05:31.022Z,92.96
2017-09-27T04:07:15.160Z,92.72
2017-09-27T04:08:15.798Z,92.33
2017-09-27T04:09:59.934Z,91.28
2017-09-27T04:11:00.571Z,91.95
2017-09-27T04:12:44.859Z,91.08
2017-09-27T04:13:45.494Z,91.61
2017-09-27T04:15:29.632Z,92.33
2017-09-27T04:16:30.268Z,92.38
2017-09-27T04:18:14.408Z,92.43
2017-09-27T04:19:15.043Z,92.05
2017-09-27T04:21:00.180Z,92.77
2017-09-27T04:22:00.816Z,92.52
2017-09-27T04:23:44.954Z,92.33
2017-09-27T04:24:45.590Z,92.24
2017-09-27T04:26:29.728Z,92.57
2017-09-27T04:27:30.368Z,93.49
2017-09-27T04:29:14.755Z,92.52
2017-09-27T04:30:15.391Z,92.77
2017-09-27T04:31:59.529Z,91.85
2017-09-27T04:33:00.166Z,91.61
2017-09-27T04:34:44.308Z,91.08
2017-09-27T04:35:44.944Z,91.71
2017-09-27T04:37:29.281Z,90.75
2017-09-27T04:38:29.918Z,91.52
2017-09-27T04:40:14.055Z,91.23
2017-09-27T04:41:14.694Z,89.40
2017-09-27T04:42:58.829Z,91.52
2017-09-27T04:43:59.466Z,91.23
2017-09-27T04:45:43.804Z,91.71
2017-09-27T04:46:44.440Z,92.38
2017-09-27T04:48:28.628Z,92.19
2017-09-27T04:49:29.265Z,92.67
2017-09-27T04:51:13.402Z,92.96
2017-09-27T04:52:14.038Z,92.86
2017-09-27T04:53:58.375Z,92.67
2017-09-27T04:54:59.013Z,93.34
2017-09-27T04:56:43.150Z,92.29
2017-09-27T04:57:43.787Z,92.10
2017-09-27T04:59:27.924Z,92.96
2017-09-27T05:00:28.561Z,92.77
2017-09-27T05:02:12.898Z,93.82
2017-09-27T05:03:13.535Z,94.21
2017-09-27T05:04:57.679Z,93.44
2017-09-27T05:05:58.366Z,93.63
2017-09-27T05:07:42.502Z,94.21
2017-09-27T05:08:43.138Z,93.25
2017-09-27T05:10:27.475Z,94.01
2017-09-27T05:11:28.115Z,93.15
2017-09-27T05:13:16.259Z,93.15
2017-09-27T05:14:16.893Z,93.54
2017-09-27T05:16:01.030Z,93.15
2017-09-27T05:17:01.667Z,94.69
2017-09-27T05:18:46.005Z,94.59
2017-09-27T05:19:46.641Z,94.69
2017-09-27T05:21:30.778Z,94.31
2017-09-27T05:22:31.416Z,94.69
2017-09-27T05:24:15.560Z,93.82
2017-09-27T05:25:16.195Z,93.54
2017-09-27T05:27:00.533Z,93.34
2017-09-27T05:28:01.170Z,93.73
2017-09-27T05:29:45.307Z,94.11
2017-09-27T05:30:45.943Z,94.11
2017-09-27T05:32:30.081Z,92.86
2017-09-27T05:33:30.717Z,93.44
2017-09-27T05:35:15.105Z,93.25
2017-09-27T05:36:15.742Z,92.96
2017-09-27T05:37:59.878Z,94.11
2017-09-27T05:39:00.516Z,94.49
2017-09-27T05:40:44.652Z,93.25
2017-09-27T05:41:45.289Z,93.05
2017-09-27T05:43:29.677Z,92.96
2017-09-27T05:44:30.314Z,93.44
2017-09-27T05:46:14.449Z,94.69
2017-09-27T05:47:15.085Z,94.01
2017-09-27T05:48:59.222Z,94.69
2017-09-27T05:49:59.811Z,94.69
2017-09-27T05:51:44.095Z,93.44
2017-09-27T05:52:44.730Z,93.34
2017-09-27T05:54:28.869Z,93.44
2017-09-27T05:55:29.505Z,94.59
2017-09-27T05:57:13.645Z,93.34
2017-09-27T05:58:14.279Z,93.63
2017-09-27T05:59:58.767Z,91.90
2017-09-27T06:00:59.405Z,92.19
2017-09-27T06:02:43.539Z,92.00
2017-09-27T06:03:44.175Z,91.33
2017-09-27T06:05:28.312Z,92.00
2017-09-27T06:06:28.949Z,92.38
2017-09-27T06:08:13.387Z,92.10
2017-09-27T06:09:14.024Z,92.48
2017-09-27T06:10:58.212Z,92.48
2017-09-27T06:11:58.848Z,92.00
2017-09-27T06:13:42.987Z,92.38
2017-09-27T06:14:43.630Z,92.10
2017-09-27T06:16:28.009Z,92.38
2017-09-27T06:17:28.647Z,92.96
2017-09-27T06:19:12.782Z,91.61
2017-09-27T06:20:13.419Z,92.19
2017-09-27T06:21:57.556Z,92.38
2017-09-27T06:22:58.193Z,92.48
2017-09-27T06:24:42.480Z,92.19
2017-09-27T06:25:43.116Z,91.61
2017-09-27T06:27:27.251Z,92.29
2017-09-27T06:28:27.887Z,91.04
2017-09-27T06:30:12.024Z,91.42
2017-09-27T06:31:12.661Z,91.42
2017-09-27T06:32:56.999Z,92.00
2017-09-27T06:33:57.634Z,91.23
2017-09-27T06:35:41.769Z,92.57
2017-09-27T06:36:42.406Z,92.00
2017-09-27T06:38:26.543Z,92.29
2017-09-27T06:39:27.180Z,91.33
2017-09-27T06:41:11.517Z,90.94
2017-09-27T06:42:12.152Z,92.10
2017-09-27T06:43:56.303Z,92.57
2017-09-27T06:44:56.924Z,92.19
2017-09-27T06:46:41.062Z,91.61
2017-09-27T06:47:41.758Z,91.33
2017-09-27T06:49:26.193Z,92.00
2017-09-27T06:50:26.824Z,91.52
2017-09-27T06:52:10.961Z,91.13
2017-09-27T06:53:16.900Z,92.77
2017-09-27T06:55:01.035Z,91.81
2017-09-27T06:56:01.672Z,90.94
2017-09-27T06:57:46.008Z,91.61
2017-09-27T06:58:46.646Z,91.61
2017-09-27T07:00:30.783Z,91.52
2017-09-27T07:01:31.421Z,85.47
2017-09-27T07:03:15.562Z,91.61
2017-09-27T07:04:16.201Z,91.71
2017-09-27T07:06:00.497Z,91.52
2017-09-27T07:07:01.131Z,90.80
2017-09-27T07:08:45.268Z,91.61
2017-09-27T07:09:45.909Z,91.47
2017-09-27T07:11:30.052Z,91.52
2017-09-27T07:12:30.773Z,91.19
2017-09-27T07:14:14.888Z,90.94
2017-09-27T07:15:15.728Z,90.75
2017-09-27T07:16:59.868Z,90.17
2017-09-27T07:18:00.511Z,90.94
2017-09-27T07:19:44.700Z,91.23
2017-09-27T07:20:45.339Z,91.23
2017-09-27T07:22:32.186Z,90.56
2017-09-27T07:23:32.969Z,90.46
2017-09-27T07:25:17.108Z,90.27
2017-09-27T07:26:17.747Z,90.08
2017-09-27T07:28:01.887Z,90.94
2017-09-27T07:29:02.527Z,91.61
2017-09-27T07:30:46.667Z,90.17
2017-09-27T07:31:47.607Z,90.27
2017-09-27T07:33:31.705Z,90.94
2017-09-27T07:34:32.346Z,90.46
2017-09-27T07:36:16.488Z,90.46
2017-09-27T07:37:17.179Z,89.98
2017-09-27T07:39:01.317Z,90.27
2017-09-27T07:40:02.156Z,90.84
2017-09-27T07:41:46.295Z,91.13
2017-09-27T07:42:46.934Z,91.04
2017-09-27T07:44:31.079Z,90.08
2017-09-27T07:45:31.718Z,90.37
2017-09-27T07:47:15.857Z,90.17
2017-09-27T07:48:16.697Z,90.37
2017-09-27T07:50:00.836Z,90.27
2017-09-27T07:51:01.475Z,90.08
2017-09-27T07:52:45.666Z,90.37
2017-09-27T07:53:46.306Z,90.56
2017-09-27T07:55:30.447Z,90.84
2017-09-27T07:56:31.236Z,90.46
2017-09-27T07:58:15.376Z,91.61
2017-09-27T07:59:16.015Z,90.84
2017-09-27T08:01:00.157Z,90.56
2017-09-27T08:02:00.799Z,91.04
2017-09-27T08:03:44.945Z,91.23
2017-09-27T08:04:45.887Z,90.94
2017-09-27T08:06:30.027Z,89.79
2017-09-27T08:07:30.667Z,90.84
2017-09-27T08:09:14.807Z,90.94
2017-09-27T08:10:15.449Z,92.57
2017-09-27T08:11:59.589Z,90.56
2017-09-27T08:13:00.428Z,90.84
2017-09-27T08:14:44.469Z,91.33
2017-09-27T08:15:45.110Z,89.40
2017-09-27T08:17:29.252Z,89.69
2017-09-27T08:18:29.891Z,89.69
2017-09-27T08:20:14.032Z,90.56
2017-09-27T08:21:14.822Z,91.52
2017-09-27T08:22:58.962Z,90.37
2017-09-27T08:23:59.601Z,91.71
2017-09-27T08:25:43.742Z,90.03
2017-09-27T08:26:44.382Z,88.73
2017-09-27T08:28:28.524Z,91.18
2017-09-27T08:29:29.364Z,90.75
2017-09-27T08:31:13.504Z,90.51
2017-09-27T08:32:14.144Z,89.54
2017-09-27T08:33:58.294Z,90.31
2017-09-27T08:34:58.936Z,90.89
2017-09-27T08:36:43.075Z,90.99
2017-09-27T08:37:44.115Z,89.93
2017-09-27T08:39:28.254Z,90.31
2017-09-27T08:40:28.894Z,89.26
2017-09-27T08:42:13.035Z,89.16
2017-09-27T08:43:13.676Z,89.26
2017-09-27T08:44:57.817Z,88.68
2017-09-27T08:45:58.657Z,89.74
2017-09-27T08:47:42.799Z,88.78
2017-09-27T08:48:43.491Z,88.10
2017-09-27T08:50:27.630Z,89.07
2017-09-27T08:51:28.273Z,86.18
2017-09-27T08:53:12.418Z,89.36
2017-09-27T08:54:13.259Z,88.78
2017-09-27T08:55:57.402Z,86.38
2017-09-27T08:56:58.043Z,88.20
2017-09-27T08:58:42.184Z,90.70
2017-09-27T08:59:42.824Z,88.68
2017-09-27T09:01:26.966Z,89.83
2017-09-27T09:02:27.806Z,88.24
2017-09-27T09:04:11.951Z,89.88
2017-09-27T09:05:12.592Z,88.06
2017-09-27T09:06:56.730Z,86.71
2017-09-27T09:07:57.371Z,88.92
2017-09-27T09:09:41.564Z,87.67
2017-09-27T09:10:42.404Z,89.11
2017-09-27T09:12:26.544Z,89.40
2017-09-27T09:13:27.184Z,89.69
2017-09-27T09:15:11.326Z,88.82
2017-09-27T09:16:11.966Z,88.63
2017-09-27T09:17:56.108Z,89.50
2017-09-27T09:18:56.749Z,88.44
2017-09-27T09:20:41.193Z,88.92
2017-09-27T09:21:41.885Z,88.63
2017-09-27T09:23:26.035Z,88.29
2017-09-27T09:24:26.679Z,87.62
2017-09-27T09:26:10.827Z,86.27
2017-09-27T09:27:11.465Z,87.13
2017-09-27T09:28:55.801Z,87.42
2017-09-27T09:29:56.441Z,86.75
2017-09-27T09:31:40.584Z,86.75
2017-09-27T09:32:41.224Z,86.65
2017-09-27T09:34:25.370Z,86.65
2017-09-27T09:35:26.011Z,86.94
2017-09-27T09:37:10.302Z,86.27
2017-09-27T09:38:10.942Z,86.18
2017-09-27T09:39:55.084Z,86.27
2017-09-27T09:40:55.725Z,87.33
2017-09-27T09:42:39.870Z,86.75
2017-09-27T09:43:40.509Z,87.04
2017-09-27T09:45:25.002Z,87.37
2017-09-27T09:46:25.642Z,86.79
2017-09-27T09:48:09.786Z,87.46
2017-09-27T09:49:10.426Z,87.08
2017-09-27T09:50:54.569Z,87.18
2017-09-27T09:51:55.209Z,87.08
2017-09-27T09:53:39.503Z,87.27
2017-09-27T09:54:40.143Z,86.89
2017-09-27T09:56:24.286Z,87.08
2017-09-27T09:57:24.927Z,86.79
2017-09-27T09:59:09.070Z,87.18
2017-09-27T10:00:09.712Z,86.69
2017-09-27T10:01:54.055Z,86.31
2017-09-27T10:02:54.698Z,86.31
2017-09-27T10:04:38.841Z,86.45
2017-09-27T10:05:39.483Z,86.83
2017-09-27T10:07:23.626Z,86.26
2017-09-27T10:08:24.269Z,86.07
2017-09-27T10:10:08.615Z,85.78
2017-09-27T10:11:09.255Z,85.58
2017-09-27T10:12:53.399Z,85.78
2017-09-27T10:13:54.042Z,85.39
2017-09-27T10:15:38.186Z,85.30
2017-09-27T10:16:38.829Z,85.39
2017-09-27T10:18:23.121Z,84.81
2017-09-27T10:19:23.764Z,84.81
2017-09-27T10:21:07.907Z,84.81
2017-09-27T10:22:08.549Z,85.05
2017-09-27T10:23:52.693Z,84.28
2017-09-27T10:24:53.335Z,84.09
2017-09-27T10:26:37.680Z,84.47
2017-09-27T10:27:38.322Z,84.18
2017-09-27T10:29:22.468Z,84.09
2017-09-27T10:30:23.163Z,83.99
2017-09-27T10:32:07.306Z,83.99
2017-09-27T10:33:07.949Z,83.51
2017-09-27T10:34:53.094Z,83.12
2017-09-27T10:35:53.737Z,83.31
2017-09-27T10:37:37.882Z,83.41
2017-09-27T10:38:38.527Z,82.74
2017-09-27T10:40:22.673Z,82.39
2017-09-27T10:41:23.318Z,82.64
2017-09-27T10:43:07.664Z,82.20
2017-09-27T10:44:08.309Z,82.39
2017-09-27T10:45:52.455Z,81.81
2017-09-27T10:46:53.107Z,82.01
2017-09-27T10:48:37.247Z,81.43
2017-09-27T10:49:37.894Z,81.33
2017-09-27T10:51:22.192Z,81.43
2017-09-27T10:52:22.839Z,80.76
2017-09-27T10:54:06.991Z,80.60
2017-09-27T10:55:07.638Z,80.60
2017-09-27T10:56:51.787Z,80.12
2017-09-27T10:59:37.977Z,79.16
2017-09-27T11:01:42.157Z,78.77
2017-09-27T11:02:43.011Z,79.19
2017-09-27T11:04:27.162Z,78.13
2017-09-27T11:05:27.812Z,77.84
2017-09-27T11:07:12.316Z,77.75
2017-09-27T11:08:12.971Z,77.26
2017-09-27T11:09:57.123Z,77.17
2017-09-27T11:10:57.776Z,76.78
2017-09-27T11:12:45.950Z,76.63
2017-09-27T11:13:46.597Z,76.05
2017-09-27T11:15:31.053Z,75.95
2017-09-27T11:16:31.706Z,75.95
2017-09-27T11:18:15.862Z,75.47
2017-09-27T11:19:16.516Z,74.89
2017-09-27T11:21:00.675Z,75.18
2017-09-27T11:22:01.330Z,74.79
2017-09-27T11:23:46.033Z,74.44
2017-09-27T11:24:46.692Z,74.54
2017-09-27T11:26:30.843Z,74.16
2017-09-27T11:27:31.498Z,73.28
2017-09-27T11:29:15.655Z,73.00
2017-09-27T11:30:16.310Z,72.94
2017-09-27T11:32:00.817Z,72.45
2017-09-27T11:33:01.473Z,72.36
2017-09-27T11:34:45.630Z,72.26
2017-09-27T11:35:46.285Z,72.16
2017-09-27T11:37:30.443Z,71.48
2017-09-27T11:38:31.103Z,72.06
2017-09-27T11:40:15.255Z,71.62
2017-09-27T11:41:16.061Z,71.23
2017-09-27T11:43:00.220Z,70.90
2017-09-27T11:44:00.872Z,70.90
2017-09-27T11:45:45.027Z,71.14
2017-09-27T11:46:45.679Z,70.81
2017-09-27T11:48:29.833Z,71.39
2017-09-27T11:49:31.542Z,72.26
2017-09-27T11:51:15.692Z,73.00
2017-09-27T11:52:16.343Z,73.28
2017-09-27T11:54:00.497Z,74.02
2017-09-27T11:55:01.148Z,74.12
2017-09-27T11:56:45.300Z,74.41
2017-09-27T11:57:46.202Z,74.69
2017-09-27T11:59:30.358Z,75.18
2017-09-27T12:00:31.010Z,74.99
2017-09-27T12:02:15.166Z,74.69
2017-09-27T12:03:15.816Z,74.60
2017-09-27T12:04:59.972Z,73.86
2017-09-27T12:06:00.773Z,72.80
2017-09-27T12:07:44.928Z,71.48
2017-09-27T12:08:45.580Z,71.04
2017-09-27T12:10:29.734Z,69.43
2017-09-27T12:11:30.384Z,69.04
2017-09-27T12:13:14.543Z,68.75
2017-09-27T12:14:15.394Z,69.10
2017-09-27T12:15:59.548Z,70.72
2017-09-27T12:17:00.199Z,71.30
2017-09-27T12:18:44.350Z,72.52
2017-09-27T12:19:45.000Z,72.52
2017-09-27T12:21:29.153Z,73.25
2017-09-27T12:22:30.002Z,73.83
2017-09-27T12:24:14.153Z,74.41
2017-09-27T12:25:14.856Z,74.95
2017-09-27T12:26:59.007Z,75.34
2017-09-27T12:27:59.655Z,75.34
2017-09-27T12:29:43.806Z,75.43
2017-09-27T12:30:44.859Z,76.01
2017-09-27T12:32:30.043Z,76.17
2017-09-27T12:33:30.662Z,76.65
2017-09-27T12:35:14.812Z,76.55
2017-09-27T12:36:15.460Z,77.13
2017-09-27T12:37:59.608Z,77.33
2017-09-27T12:39:00.457Z,77.81
2017-09-27T12:40:44.606Z,78.09
2017-09-27T12:41:45.253Z,78.29
2017-09-27T12:43:29.408Z,78.38
2017-09-27T12:44:30.055Z,78.86
2017-09-27T12:46:18.471Z,78.77
2017-09-27T12:47:20.366Z,79.16
2017-09-27T12:49:04.514Z,79.11
2017-09-27T12:50:05.160Z,79.41
2017-09-27T12:53:13.222Z,79.41
2017-09-27T12:54:13.868Z,79.89
2017-09-27T12:55:58.165Z,79.35
2017-09-27T12:56:58.813Z,79.54
2017-09-27T12:58:42.962Z,79.16
2017-09-27T12:59:43.625Z,78.96
2017-09-27T13:01:27.760Z,78.03
2017-09-27T13:02:28.409Z,75.76
2017-09-27T13:04:21.026Z,70.14
2017-09-27T13:05:21.677Z,67.14
2017-09-27T13:07:05.835Z,62.95
2017-09-27T13:08:07.482Z,61.71
2017-09-27T13:09:51.638Z,60.02
2017-09-27T13:10:52.285Z,58.59
2017-09-27T13:12:36.639Z,57.20
2017-09-27T13:13:37.292Z,55.93
2017-09-27T13:15:21.446Z,55.27
2017-09-27T13:16:22.099Z,54.60
2017-09-27T13:18:06.253Z,53.36
2017-09-27T13:19:06.907Z,53.19
2017-09-27T13:20:51.263Z,52.70
2017-09-27T13:21:51.917Z,52.24
2017-09-27T13:23:36.075Z,52.24
2017-09-27T13:24:36.730Z,51.56
2017-09-27T13:26:20.889Z,51.39
2017-09-27T13:27:21.543Z,50.90
2017-09-27T13:29:05.850Z,50.80
2017-09-27T13:30:06.454Z,49.73
2017-09-27T13:31:50.611Z,49.27
2017-09-27T13:35:42.469Z,48.61
2017-09-27T13:37:00.200Z,48.41
2017-09-27T13:39:17.114Z,48.32
2017-09-27T13:41:01.272Z,47.56
2017-09-27T13:42:01.928Z,47.46
2017-09-27T13:43:46.097Z,47.75
2017-09-27T13:44:46.751Z,47.46
2017-09-27T13:46:43.383Z,47.87
